Time;durP1;ratioP1;P1;durP2;ratioP2;P2;SDS_P1;SDS_P2;PMS_P1;PMS_P2;Temp;Humidity;BMP_temperature;BMP_pressure;BME280_temperature;BME280_humidity;BME280_pressure;Samples;Min_cycle;Max_cycle;Signal;HPM_P1;HPM_P2
2021/03/22 00:01:38;;;;;;;27.52;5.82;;;;;;;;;;5049178;28;20177;-74
2021/03/22 00:04:04;;;;;;;24.75;5.45;;;;;;;;;;5055367;28;20644;-74
2021/03/22 00:06:30;;;;;;;21.13;4.70;;;;;;;;;;5070811;28;20625;-74
2021/03/22 00:08:57;;;;;;;15.45;4.93;;;;;;;;;;5056062;28;20201;-74
2021/03/22 00:11:23;;;;;;;26.33;4.60;;;;;;;;;;5052965;28;20223;-74
2021/03/22 00:13:49;;;;;;;22.85;4.50;;;;;;;;;;5052283;28;20504;-75
2021/03/22 00:16:16;;;;;;;17.38;5.07;;;;;;;;;;5052449;28;20260;-74
2021/03/22 00:18:43;;;;;;;17.00;4.57;;;;;;;;;;5052906;28;20530;-74
2021/03/22 00:21:10;;;;;;;17.35;5.80;;;;;;;;;;5053169;28;20538;-76
2021/03/22 00:23:36;;;;;;;15.00;5.50;;;;;;;;;;5052231;28;20192;-76
2021/03/22 00:26:02;;;;;;;21.02;4.68;;;;;;;;;;5055097;28;20181;-74
2021/03/22 00:28:28;;;;;;;22.15;5.15;;;;;;;;;;5052865;28;20161;-75
2021/03/22 00:30:55;;;;;;;20.58;5.93;;;;;;;;;;5047765;28;20181;-75
2021/03/22 00:33:22;;;;;;;26.02;6.38;;;;;;;;;;5052749;28;20173;-75
2021/03/22 00:35:49;;;;;;;27.58;5.65;;;;;;;;;;5052959;28;20197;-74
2021/03/22 00:38:17;;;;;;;18.73;4.93;;;;;;;;;;5052690;28;20173;-74
2021/03/22 00:40:44;;;;;;;19.52;4.85;;;;;;;;;;5052699;28;20173;-75
2021/03/22 00:43:10;;;;;;;16.65;4.82;;;;;;;;;;5052597;28;20173;-76
2021/03/22 00:45:36;;;;;;;19.83;5.28;;;;;;;;;;5052756;28;20547;-75
2021/03/22 00:48:02;;;;;;;13.98;4.70;;;;;;;;;;5049256;28;20184;-74
2021/03/22 00:50:30;;;;;;;27.10;6.93;;;;;;;;;;5068315;28;20201;-76
2021/03/22 00:52:57;;;;;;;24.40;4.95;;;;;;;;;;5060788;28;20177;-75
2021/03/22 00:55:23;;;;;;;22.63;5.28;;;;;;;;;;5058470;28;20538;-76
2021/03/22 00:57:50;;;;;;;14.95;5.00;;;;;;;;;;5052693;28;20173;-76
2021/03/22 01:00:24;;;;;;;23.45;4.63;;;;;;;;;;5053026;28;20310;-76
2021/03/22 01:02:51;;;;;;;21.23;5.20;;;;;;;;;;5062691;28;20191;-76
2021/03/22 01:05:17;;;;;;;16.45;4.53;;;;;;;;;;5071745;28;20223;-75
2021/03/22 01:07:43;;;;;;;17.38;4.55;;;;;;;;;;5052026;28;20215;-75
2021/03/22 01:10:21;;;;;;;19.55;4.40;;;;;;;;;;5069819;28;20181;-75
2021/03/22 01:12:47;;;;;;;18.02;5.35;;;;;;;;;;5073338;28;20183;-76
2021/03/22 01:15:13;;;;;;;20.55;4.90;;;;;;;;;;5056084;28;20193;-75
2021/03/22 01:17:39;;;;;;;22.52;6.65;;;;;;;;;;5056018;28;20275;-74
2021/03/22 01:20:08;;;;;;;19.40;5.93;;;;;;;;;;5074708;28;20661;-76
2021/03/22 01:22:34;;;;;;;19.77;4.45;;;;;;;;;;5058780;28;20530;-75
2021/03/22 01:25:00;;;;;;;17.75;4.53;;;;;;;;;;5064057;28;20212;-74
2021/03/22 01:27:26;;;;;;;21.50;4.30;;;;;;;;;;5076037;28;20176;-76
2021/03/22 01:29:52;;;;;;;20.50;4.57;;;;;;;;;;5061021;28;20180;-76
2021/03/22 01:32:18;;;;;;;28.50;4.32;;;;;;;;;;5055597;28;20173;-75
2021/03/22 01:34:44;;;;;;;29.42;6.03;;;;;;;;;;5054943;28;20204;-76
2021/03/22 01:37:10;;;;;;;20.80;5.05;;;;;;;;;;5055191;28;20212;-75
2021/03/22 01:39:37;;;;;;;22.95;4.25;;;;;;;;;;5061818;28;20214;-77
2021/03/22 01:42:09;;;;;;;24.90;4.95;;;;;;;;;;5075255;28;20522;-75
2021/03/22 01:44:40;;;;;;;22.33;6.03;;;;;;;;;;5064972;28;20208;-75
2021/03/22 01:47:11;;;;;;;18.85;5.40;;;;;;;;;;5055316;28;20255;-75
2021/03/22 01:49:49;;;;;;;30.33;5.85;;;;;;;;;;5063295;28;20180;-75
2021/03/22 01:52:15;;;;;;;19.67;4.18;;;;;;;;;;5072424;28;20215;-75
2021/03/22 01:54:41;;;;;;;21.58;4.47;;;;;;;;;;5055640;28;20189;-75
2021/03/22 01:57:26;;;;;;;15.25;4.78;;;;;;;;;;5072609;28;20197;-74
2021/03/22 01:59:53;;;;;;;21.33;4.80;;;;;;;;;;5054984;28;20192;-75
2021/03/22 02:02:19;;;;;;;17.63;4.90;;;;;;;;;;5054641;28;20184;-74
2021/03/22 02:04:45;;;;;;;15.35;5.47;;;;;;;;;;5058469;28;20567;-77
2021/03/22 02:07:11;;;;;;;23.98;5.35;;;;;;;;;;5058691;28;20230;-75
2021/03/22 02:09:39;;;;;;;21.02;4.18;;;;;;;;;;5054653;28;20173;-73
2021/03/22 02:12:21;;;;;;;28.08;5.45;;;;;;;;;;5054935;28;20168;-75
2021/03/22 02:14:48;;;;;;;16.65;4.70;;;;;;;;;;5054849;28;20192;-74
2021/03/22 02:17:25;;;;;;;21.73;4.93;;;;;;;;;;5054589;28;20239;-74
2021/03/22 02:20:05;;;;;;;31.60;5.10;;;;;;;;;;5055218;28;20180;-73
2021/03/22 02:22:47;;;;;;;22.48;4.55;;;;;;;;;;5054459;28;20188;-73
2021/03/22 02:25:19;;;;;;;16.92;4.78;;;;;;;;;;5051691;28;20223;-73
2021/03/22 02:27:45;;;;;;;25.27;5.50;;;;;;;;;;5061733;28;20185;-76
2021/03/22 02:30:30;;;;;;;29.95;5.22;;;;;;;;;;5067943;28;20168;-75
2021/03/22 02:33:14;;;;;;;21.55;5.07;;;;;;;;;;5069219;28;20538;-75
2021/03/22 02:35:53;;;;;;;32.22;5.18;;;;;;;;;;5069030;28;20204;-75
2021/03/22 02:38:22;;;;;;;22.83;5.45;;;;;;;;;;5063277;28;20184;-74
2021/03/22 02:41:00;;;;;;;24.67;6.28;;;;;;;;;;5060540;28;20610;-74
2021/03/22 02:43:26;;;;;;;22.58;5.10;;;;;;;;;;5054263;28;20185;-74
2021/03/22 02:45:55;;;;;;;29.52;6.15;;;;;;;;;;5067367;28;20192;-73
2021/03/22 02:48:23;;;;;;;21.17;4.82;;;;;;;;;;5054495;28;20189;-74
2021/03/22 02:50:53;;;;;;;19.42;5.80;;;;;;;;;;5053811;28;20181;-74
2021/03/22 02:53:30;;;;;;;17.88;6.15;;;;;;;;;;5066051;28;20510;-74
2021/03/22 02:56:02;;;;;;;20.40;5.57;;;;;;;;;;5069584;28;20197;-74
2021/03/22 02:58:32;;;;;;;20.80;5.95;;;;;;;;;;5054262;28;20642;-75
2021/03/22 03:01:01;;;;;;;19.45;5.63;;;;;;;;;;5065323;28;20173;-75
2021/03/22 03:03:28;;;;;;;22.02;5.53;;;;;;;;;;5052976;28;20222;-75
2021/03/22 03:05:54;;;;;;;17.25;4.95;;;;;;;;;;5053751;28;20216;-75
2021/03/22 03:08:23;;;;;;;21.30;6.10;;;;;;;;;;5054059;28;20184;-75
2021/03/22 03:10:49;;;;;;;19.25;5.55;;;;;;;;;;5053086;28;20181;-75
2021/03/22 03:13:15;;;;;;;21.42;5.60;;;;;;;;;;5053536;28;20173;-75
2021/03/22 03:15:41;;;;;;;21.65;5.20;;;;;;;;;;5053435;28;20208;-75
2021/03/22 03:18:07;;;;;;;23.25;6.40;;;;;;;;;;5067521;28;20525;-75
2021/03/22 03:20:33;;;;;;;16.85;5.13;;;;;;;;;;5071418;28;20179;-76
2021/03/22 03:23:00;;;;;;;28.05;5.72;;;;;;;;;;5069814;28;20176;-76
2021/03/22 03:25:27;;;;;;;18.85;4.95;;;;;;;;;;5063405;28;20688;-74
2021/03/22 03:27:53;;;;;;;18.45;5.00;;;;;;;;;;5070048;28;20715;-74
2021/03/22 03:30:21;;;;;;;14.57;5.43;;;;;;;;;;5057996;28;20177;-74
2021/03/22 03:32:48;;;;;;;22.83;4.85;;;;;;;;;;5062498;28;20526;-73
2021/03/22 03:35:14;;;;;;;18.77;5.50;;;;;;;;;;5052530;28;20197;-73
2021/03/22 03:37:40;;;;;;;22.15;5.35;;;;;;;;;;5053233;28;20177;-75
2021/03/22 03:40:15;;;;;;;22.50;6.10;;;;;;;;;;5055021;28;20502;-77
2021/03/22 03:42:41;;;;;;;29.33;6.07;;;;;;;;;;5052896;28;20184;-74
2021/03/22 03:45:12;;;;;;;20.95;5.80;;;;;;;;;;5052877;28;20213;-73
2021/03/22 03:47:41;;;;;;;20.73;5.40;;;;;;;;;;5053253;28;20177;-75
2021/03/22 03:50:10;;;;;;;25.85;5.65;;;;;;;;;;5066359;28;20176;-76
2021/03/22 03:52:36;;;;;;;26.08;5.40;;;;;;;;;;5071514;28;20183;-75
2021/03/22 03:55:02;;;;;;;25.35;4.82;;;;;;;;;;5052730;28;20196;-74
2021/03/22 03:57:28;;;;;;;12.50;4.50;;;;;;;;;;5052968;28;20255;-73
2021/03/22 03:59:54;;;;;;;26.40;6.07;;;;;;;;;;5065591;28;20283;-74
2021/03/22 04:02:20;;;;;;;20.92;5.18;;;;;;;;;;5055373;28;20657;-75
2021/03/22 04:04:46;;;;;;;20.95;5.32;;;;;;;;;;5052683;28;20262;-74
2021/03/22 04:07:12;;;;;;;24.70;4.65;;;;;;;;;;5052931;28;20177;-75
2021/03/22 04:09:38;;;;;;;29.52;5.63;;;;;;;;;;5066708;28;20168;-75
2021/03/22 04:12:04;;;;;;;29.35;5.47;;;;;;;;;;5061632;28;20179;-76
2021/03/22 04:14:30;;;;;;;18.02;5.07;;;;;;;;;;5060349;28;20197;-74
2021/03/22 04:16:56;;;;;;;17.02;4.20;;;;;;;;;;5054235;28;20544;-75
2021/03/22 04:19:23;;;;;;;22.77;5.60;;;;;;;;;;5057402;28;20177;-74
2021/03/22 04:21:49;;;;;;;21.40;5.22;;;;;;;;;;5059672;28;20180;-74
2021/03/22 04:24:17;;;;;;;23.77;5.93;;;;;;;;;;5052768;28;20215;-73
2021/03/22 04:26:43;;;;;;;32.92;5.72;;;;;;;;;;5053074;28;20502;-73
2021/03/22 04:29:09;;;;;;;25.25;5.30;;;;;;;;;;5052707;28;20173;-74
2021/03/22 04:31:35;;;;;;;21.42;5.05;;;;;;;;;;5052960;28;20188;-74
2021/03/22 04:34:01;;;;;;;26.02;6.07;;;;;;;;;;5066081;28;20196;-74
2021/03/22 04:36:30;;;;;;;32.17;5.60;;;;;;;;;;5059722;28;20257;-73
2021/03/22 04:38:56;;;;;;;25.70;5.68;;;;;;;;;;5069804;28;20204;-74
2021/03/22 04:41:23;;;;;;;19.10;5.88;;;;;;;;;;5055485;28;20181;-75
2021/03/22 04:43:50;;;;;;;19.63;6.72;;;;;;;;;;5051023;28;21044;-73
2021/03/22 04:46:16;;;;;;;27.90;7.30;;;;;;;;;;5059761;28;20514;-74
2021/03/22 04:48:42;;;;;;;30.38;8.40;;;;;;;;;;5066787;28;20177;-75
2021/03/22 04:51:08;;;;;;;29.55;7.05;;;;;;;;;;5056297;28;20173;-74
2021/03/22 04:53:34;;;;;;;30.48;7.60;;;;;;;;;;5055092;28;20173;-75
2021/03/22 04:56:00;;;;;;;19.05;6.00;;;;;;;;;;5056290;28;20173;-74
2021/03/22 04:58:26;;;;;;;28.73;6.85;;;;;;;;;;5056238;28;20188;-74
2021/03/22 05:00:52;;;;;;;26.05;7.13;;;;;;;;;;5057958;28;20169;-73
2021/03/22 05:03:21;;;;;;;29.65;6.82;;;;;;;;;;5068983;28;20168;-76
2021/03/22 05:05:47;;;;;;;25.63;7.50;;;;;;;;;;5054753;28;20235;-75
2021/03/22 05:08:15;;;;;;;22.08;6.40;;;;;;;;;;5056035;28;20180;-75
2021/03/22 05:10:42;;;;;;;27.80;7.55;;;;;;;;;;5056398;28;20248;-75
2021/03/22 05:13:09;;;;;;;20.60;6.60;;;;;;;;;;5055536;28;20201;-75
2021/03/22 05:15:35;;;;;;;20.33;7.43;;;;;;;;;;5054066;28;20226;-73
2021/03/22 05:18:01;;;;;;;22.38;6.30;;;;;;;;;;5055678;28;20211;-76
2021/03/22 05:20:31;;;;;;;25.00;7.10;;;;;;;;;;5056195;28;20646;-73
2021/03/22 05:22:58;;;;;;;24.45;6.82;;;;;;;;;;5058312;28;20188;-75
2021/03/22 05:25:24;;;;;;;24.00;7.43;;;;;;;;;;5060870;28;20694;-74
2021/03/22 05:27:50;;;;;;;26.35;6.97;;;;;;;;;;5055687;28;20182;-73
2021/03/22 05:30:16;;;;;;;19.88;6.47;;;;;;;;;;5055711;28;20169;-74
2021/03/22 05:32:42;;;;;;;19.33;6.65;;;;;;;;;;5058965;28;20168;-74
2021/03/22 05:35:10;;;;;;;19.00;6.80;;;;;;;;;;5056433;28;20243;-75
2021/03/22 05:37:36;;;;;;;21.00;5.80;;;;;;;;;;5055832;28;20239;-75
2021/03/22 05:40:04;;;;;;;13.98;6.53;;;;;;;;;;5055466;28;20556;-73
2021/03/22 05:42:48;;;;;;;17.80;7.18;;;;;;;;;;5059467;28;20172;-74
2021/03/22 05:45:28;;;;;;;18.90;6.40;;;;;;;;;;5062444;28;20519;-75
2021/03/22 05:48:02;;;;;;;14.32;6.00;;;;;;;;;;5056080;28;20173;-75
2021/03/22 05:50:38;;;;;;;23.98;8.15;;;;;;;;;;5069126;28;20181;-74
2021/03/22 05:53:14;;;;;;;21.15;6.72;;;;;;;;;;5065799;28;20199;-75
2021/03/22 05:56:00;;;;;;;25.10;8.07;;;;;;;;;;5053949;28;21975;-75
2021/03/22 05:58:36;;;;;;;16.17;7.20;;;;;;;;;;5065783;28;20184;-74
2021/03/22 06:01:05;;;;;;;20.30;7.38;;;;;;;;;;5054803;28;20177;-75
2021/03/22 06:03:37;;;;;;;16.88;7.20;;;;;;;;;;5057474;28;20260;-75
2021/03/22 06:06:05;;;;;;;21.73;7.80;;;;;;;;;;5074942;28;20237;-73
2021/03/22 06:08:43;;;;;;;17.23;6.32;;;;;;;;;;5057505;28;20199;-74
2021/03/22 06:11:28;;;;;;;25.58;7.95;;;;;;;;;;5054714;28;20256;-74
2021/03/22 06:14:05;;;;;;;20.17;7.65;;;;;;;;;;5042753;28;20285;-75
2021/03/22 06:16:39;;;;;;;19.40;7.00;;;;;;;;;;5057676;28;20184;-75
2021/03/22 06:19:07;;;;;;;19.98;8.35;;;;;;;;;;5057239;28;20200;-76
2021/03/22 06:21:35;;;;;;;19.80;8.20;;;;;;;;;;5054720;28;20181;-75
2021/03/22 06:24:06;;;;;;;18.88;6.43;;;;;;;;;;5058015;28;20608;-76
2021/03/22 06:26:35;;;;;;;26.75;7.97;;;;;;;;;;5071747;28;20176;-76
2021/03/22 06:29:05;;;;;;;22.90;7.82;;;;;;;;;;5062599;28;20166;-74
2021/03/22 06:31:32;;;;;;;21.27;6.80;;;;;;;;;;5054416;28;20518;-75
2021/03/22 06:34:02;;;;;;;14.93;7.32;;;;;;;;;;5053992;28;20192;-75
2021/03/22 06:36:28;;;;;;;23.17;7.68;;;;;;;;;;5045240;28;20226;-75
2021/03/22 06:38:56;;;;;;;16.50;6.95;;;;;;;;;;5054490;28;20177;-75
2021/03/22 06:41:40;;;;;;;18.30;7.80;;;;;;;;;;5059330;28;20188;-73
2021/03/22 06:44:09;;;;;;;17.50;7.50;;;;;;;;;;5053775;28;20211;-76
2021/03/22 06:46:35;;;;;;;20.00;6.35;;;;;;;;;;5053989;28;20184;-73
2021/03/22 06:49:03;;;;;;;23.05;7.45;;;;;;;;;;5053831;28;20173;-75
2021/03/22 06:51:30;;;;;;;17.73;7.53;;;;;;;;;;5064231;28;20185;-75
2021/03/22 06:54:00;;;;;;;19.90;7.47;;;;;;;;;;5056368;28;20548;-75
2021/03/22 06:56:28;;;;;;;14.13;6.50;;;;;;;;;;5054439;28;20620;-74
2021/03/22 06:59:14;;;;;;;20.20;7.65;;;;;;;;;;5071598;28;20552;-75
2021/03/22 07:01:41;;;;;;;17.77;6.88;;;;;;;;;;5060521;28;20242;-76
2021/03/22 07:04:25;;;;;;;17.52;7.47;;;;;;;;;;5066411;28;20200;-74
2021/03/22 07:07:09;;;;;;;15.60;7.70;;;;;;;;;;5053776;28;20169;-73
2021/03/22 07:09:37;;;;;;;19.58;6.25;;;;;;;;;;5045804;28;20172;-74
2021/03/22 07:12:04;;;;;;;14.60;7.20;;;;;;;;;;5057651;28;20219;-74
2021/03/22 07:14:31;;;;;;;14.05;6.80;;;;;;;;;;5053445;28;20212;-73
2021/03/22 07:17:08;;;;;;;25.80;7.88;;;;;;;;;;5053655;28;20188;-75
2021/03/22 07:19:34;;;;;;;22.60;8.05;;;;;;;;;;5053732;28;20585;-73
2021/03/22 07:22:02;;;;;;;15.43;7.28;;;;;;;;;;5052182;28;20546;-73
2021/03/22 07:24:28;;;;;;;18.70;6.75;;;;;;;;;;5053103;28;20200;-75
2021/03/22 07:27:06;;;;;;;15.20;7.70;;;;;;;;;;5062749;28;20656;-74
2021/03/22 07:29:32;;;;;;;22.98;8.60;;;;;;;;;;5057012;28;20390;-75
2021/03/22 07:32:13;;;;;;;15.33;7.30;;;;;;;;;;5053255;28;20175;-75
2021/03/22 07:34:52;;;;;;;16.75;8.30;;;;;;;;;;5053815;28;20451;-73
2021/03/22 07:37:36;;;;;;;17.92;7.13;;;;;;;;;;5054093;28;20211;-73
2021/03/22 07:40:11;;;;;;;22.75;7.60;;;;;;;;;;5054136;28;20205;-74
2021/03/22 07:42:56;;;;;;;19.38;6.78;;;;;;;;;;5054306;28;20204;-75
2021/03/22 07:45:25;;;;;;;18.52;7.70;;;;;;;;;;5053902;28;20354;-74
2021/03/22 07:47:55;;;;;;;18.95;6.85;;;;;;;;;;5057283;28;20173;-75
2021/03/22 07:50:21;;;;;;;17.30;6.60;;;;;;;;;;5063806;28;20177;-75
2021/03/22 07:52:56;;;;;;;18.10;7.00;;;;;;;;;;5067031;28;20177;-76
2021/03/22 07:55:37;;;;;;;13.52;6.72;;;;;;;;;;5066894;28;20294;-74
2021/03/22 07:58:22;;;;;;;18.33;7.47;;;;;;;;;;5071642;28;20148;-74
2021/03/22 08:01:07;;;;;;;15.70;6.90;;;;;;;;;;5063029;28;20181;-75
2021/03/22 08:03:54;;;;;;;18.42;7.40;;;;;;;;;;5059819;28;20205;-75
2021/03/22 08:06:41;;;;;;;11.68;6.15;;;;;;;;;;5065022;28;20188;-77
2021/03/22 08:09:16;;;;;;;13.23;6.43;;;;;;;;;;5049198;28;20181;-75
2021/03/22 08:11:47;;;;;;;14.45;6.65;;;;;;;;;;5059603;28;20176;-74
2021/03/22 08:14:19;;;;;;;12.70;6.72;;;;;;;;;;5055761;28;20334;-74
2021/03/22 08:16:57;;;;;;;12.55;5.90;;;;;;;;;;5061686;28;20189;-73
2021/03/22 08:19:35;;;;;;;16.80;6.57;;;;;;;;;;5056956;28;20188;-76
2021/03/22 08:22:08;;;;;;;18.35;6.38;;;;;;;;;;5046862;28;20177;-73
2021/03/22 08:24:46;;;;;;;12.23;5.95;;;;;;;;;;5053171;28;20212;-76
2021/03/22 08:27:14;;;;;;;11.88;6.15;;;;;;;;;;5053800;28;20172;-75
2021/03/22 08:30:03;;;;;;;17.52;6.50;;;;;;;;;;5053695;28;20269;-74
2021/03/22 08:32:29;;;;;;;18.38;5.20;;;;;;;;;;5056483;28;20598;-75
2021/03/22 08:35:14;;;;;;;17.52;5.63;;;;;;;;;;5073666;28;20324;-77
2021/03/22 08:37:52;;;;;;;11.77;5.55;;;;;;;;;;5062770;28;20189;-77
2021/03/22 08:40:38;;;;;;;10.05;5.28;;;;;;;;;;5052439;28;20184;-74
2021/03/22 08:43:07;;;;;;;10.18;5.20;;;;;;;;;;5059784;28;20199;-74
2021/03/22 08:45:35;;;;;;;13.32;5.85;;;;;;;;;;5053716;28;20239;-76
2021/03/22 08:48:13;;;;;;;12.80;5.38;;;;;;;;;;5054071;28;20173;-75
2021/03/22 08:50:40;;;;;;;10.90;4.63;;;;;;;;;;5053694;28;20184;-74
2021/03/22 08:53:19;;;;;;;9.82;5.75;;;;;;;;;;5053109;28;20653;-76
2021/03/22 08:55:59;;;;;;;11.35;5.07;;;;;;;;;;5066229;28;20196;-74
2021/03/22 08:58:39;;;;;;;13.35;5.30;;;;;;;;;;5046383;28;20264;-75
2021/03/22 09:01:08;;;;;;;12.95;6.00;;;;;;;;;;5064572;28;20184;-75
2021/03/22 09:03:35;;;;;;;12.07;4.95;;;;;;;;;;5064361;28;20181;-76
2021/03/22 09:06:04;;;;;;;9.85;5.22;;;;;;;;;;5064263;28;20557;-75
2021/03/22 09:08:37;;;;;;;21.60;7.85;;;;;;;;;;5061310;28;20255;-75
2021/03/22 09:11:22;;;;;;;11.75;4.80;;;;;;;;;;5066171;28;20169;-77
2021/03/22 09:13:51;;;;;;;12.10;4.90;;;;;;;;;;5061166;28;20204;-77
2021/03/22 09:16:23;;;;;;;15.57;5.20;;;;;;;;;;5052207;28;20234;-77
2021/03/22 09:19:07;;;;;;;10.13;5.13;;;;;;;;;;5052551;28;20181;-78
2021/03/22 09:21:34;;;;;;;8.90;5.68;;;;;;;;;;5072651;28;20179;-77
2021/03/22 09:24:00;;;;;;;10.43;5.13;;;;;;;;;;5071581;28;20239;-77
2021/03/22 09:26:45;;;;;;;15.23;4.80;;;;;;;;;;5063837;28;20184;-74
2021/03/22 09:29:36;;;;;;;9.70;4.28;;;;;;;;;;5053250;28;20259;-77
2021/03/22 09:32:04;;;;;;;13.55;5.50;;;;;;;;;;5068784;28;20263;-74
2021/03/22 09:34:32;;;;;;;11.95;4.88;;;;;;;;;;5060287;28;20693;-77
2021/03/22 09:36:58;;;;;;;8.25;4.90;;;;;;;;;;5055757;28;20192;-76
2021/03/22 09:39:24;;;;;;;10.95;4.70;;;;;;;;;;5071187;28;20549;-77
2021/03/22 09:42:01;;;;;;;7.20;3.97;;;;;;;;;;5060311;28;20181;-75
2021/03/22 09:44:29;;;;;;;6.18;4.25;;;;;;;;;;5052558;28;20201;-74
2021/03/22 09:47:14;;;;;;;6.35;3.88;;;;;;;;;;5057688;28;20531;-75
2021/03/22 09:50:02;;;;;;;6.70;4.13;;;;;;;;;;5053905;28;20581;-76
2021/03/22 09:52:28;;;;;;;7.38;4.18;;;;;;;;;;5051222;28;20258;-74
2021/03/22 09:54:54;;;;;;;8.07;4.27;;;;;;;;;;5051253;28;20205;-73
2021/03/22 09:57:20;;;;;;;7.87;4.40;;;;;;;;;;5061336;28;20989;-78
2021/03/22 10:00:18;;;;;;;6.63;4.07;;;;;;;;;;5053012;28;20438;-78
2021/03/22 10:02:50;;;;;;;6.60;4.53;;;;;;;;;;5050856;28;20455;-73
2021/03/22 10:05:21;;;;;;;5.13;3.70;;;;;;;;;;5051396;28;20956;-76
2021/03/22 10:08:06;;;;;;;5.37;3.50;;;;;;;;;;5053554;28;20426;-75
2021/03/22 10:10:37;;;;;;;5.27;3.17;;;;;;;;;;5051248;28;20419;-75
2021/03/22 10:13:26;;;;;;;5.63;3.63;;;;;;;;;;5050750;28;20563;-74
2021/03/22 10:15:55;;;;;;;7.93;3.97;;;;;;;;;;5050115;28;20564;-73
2021/03/22 10:18:40;;;;;;;7.03;4.33;;;;;;;;;;5065188;28;20426;-75
2021/03/22 10:21:11;;;;;;;9.13;3.67;;;;;;;;;;5067026;28;20418;-75
2021/03/22 10:23:46;;;;;;;7.93;4.30;;;;;;;;;;5052312;28;20439;-74
2021/03/22 10:26:17;;;;;;;6.43;3.67;;;;;;;;;;5039247;28;20407;-76
2021/03/22 10:28:43;;;;;;;7.33;4.40;;;;;;;;;;5064913;28;20844;-75
2021/03/22 10:31:18;;;;;;;7.23;4.17;;;;;;;;;;5051403;28;20447;-73
2021/03/22 10:33:57;;;;;;;5.10;3.30;;;;;;;;;;5053101;28;20827;-75
2021/03/22 10:36:25;;;;;;;5.33;3.83;;;;;;;;;;5063185;28;20472;-75
2021/03/22 10:38:52;;;;;;;6.60;3.60;;;;;;;;;;5053619;28;21022;-74
2021/03/22 10:41:31;;;;;;;5.40;3.30;;;;;;;;;;5059992;28;20510;-74
2021/03/22 10:43:59;;;;;;;5.17;3.27;;;;;;;;;;5056051;28;20529;-75
2021/03/22 10:46:27;;;;;;;3.80;3.33;;;;;;;;;;5069774;28;20425;-76
2021/03/22 10:49:00;;;;;;;5.20;3.90;;;;;;;;;;5052816;28;21023;-75
2021/03/22 10:51:37;;;;;;;6.33;3.80;;;;;;;;;;5050725;28;20424;-75
2021/03/22 10:54:05;;;;;;;10.73;3.83;;;;;;;;;;5050247;28;20495;-76
2021/03/22 10:56:34;;;;;;;5.30;3.37;;;;;;;;;;5051429;28;20420;-75
2021/03/22 10:59:04;;;;;;;7.20;3.17;;;;;;;;;;5050584;28;20777;-75
2021/03/22 11:01:34;;;;;;;6.10;3.20;;;;;;;;;;5037963;28;20485;-75
2021/03/22 11:04:04;;;;;;;4.17;2.80;;;;;;;;;;5049811;28;20459;-76
2021/03/22 11:06:39;;;;;;;3.97;2.93;;;;;;;;;;5127841;27;21118;-77
2021/03/22 11:09:07;;;;;;;6.47;3.90;;;;;;;;;;5114244;27;20425;-75
2021/03/22 11:11:33;;;;;;;5.63;3.80;;;;;;;;;;5115350;27;20566;-76
2021/03/22 11:14:04;;;;;;;4.57;2.97;;;;;;;;;;5140930;27;20429;-77
2021/03/22 11:16:37;;;;;;;3.97;3.03;;;;;;;;;;5107064;28;20432;-75
2021/03/22 11:19:27;;;;;;;4.83;3.30;;;;;;;;;;5125619;27;20408;-73
2021/03/22 11:21:55;;;;;;;5.17;3.70;;;;;;;;;;5107110;28;20498;-75
2021/03/22 11:24:33;;;;;;;4.93;3.30;;;;;;;;;;5114466;28;20451;-75
2021/03/22 11:27:00;;;;;;;4.17;3.50;;;;;;;;;;5117637;27;20828;-75
2021/03/22 11:29:26;;;;;;;4.80;3.13;;;;;;;;;;5109690;27;20520;-75
2021/03/22 11:32:02;;;;;;;5.50;3.67;;;;;;;;;;5109735;28;20482;-75
2021/03/22 11:34:42;;;;;;;6.90;4.50;;;;;;;;;;5122208;27;20535;-75
2021/03/22 11:37:20;;;;;;;5.43;4.27;;;;;;;;;;5105061;28;20430;-76
2021/03/22 11:39:47;;;;;;;7.07;4.20;;;;;;;;;;5121535;27;20425;-75
2021/03/22 11:42:19;;;;;;;6.67;3.73;;;;;;;;;;5126063;27;20424;-77
2021/03/22 11:44:46;;;;;;;4.60;3.40;;;;;;;;;;5106262;28;20472;-78
2021/03/22 11:47:24;;;;;;;6.67;3.70;;;;;;;;;;5114825;28;20419;-76
2021/03/22 11:49:51;;;;;;;6.80;3.97;;;;;;;;;;5106651;28;20416;-73
2021/03/22 11:52:19;;;;;;;3.90;3.20;;;;;;;;;;5104854;28;20429;-76
2021/03/22 11:55:07;;;;;;;4.30;3.57;;;;;;;;;;5119031;28;20457;-77
2021/03/22 11:57:36;;;;;;;4.30;3.00;;;;;;;;;;5116111;27;20565;-75
2021/03/22 12:00:05;;;;;;;5.47;3.80;;;;;;;;;;5105323;28;20508;-76
2021/03/22 12:02:32;;;;;;;5.37;3.40;;;;;;;;;;5106295;28;20469;-74
2021/03/22 12:05:22;;;;;;;4.93;3.20;;;;;;;;;;5105900;28;20474;-78
2021/03/22 12:07:48;;;;;;;4.70;3.40;;;;;;;;;;5105854;28;20433;-72
2021/03/22 12:10:20;;;;;;;4.97;4.47;;;;;;;;;;5106331;28;20501;-76
2021/03/22 12:12:46;;;;;;;5.67;5.13;;;;;;;;;;5111973;28;20482;-75
2021/03/22 12:15:13;;;;;;;5.37;4.87;;;;;;;;;;5110869;27;20451;-76
2021/03/22 12:17:39;;;;;;;6.13;5.37;;;;;;;;;;5093416;28;20433;-74
2021/03/22 12:20:13;;;;;;;5.10;4.57;;;;;;;;;;5092406;28;20437;-75
2021/03/22 12:22:39;;;;;;;7.47;4.40;;;;;;;;;;5084756;28;20765;-76
2021/03/22 12:25:06;;;;;;;4.37;3.57;;;;;;;;;;5090018;28;20546;-71
2021/03/22 12:27:32;;;;;;;4.40;3.90;;;;;;;;;;5092465;28;20420;-73
2021/03/22 12:29:58;;;;;;;5.80;4.00;;;;;;;;;;5092232;28;20417;-74
2021/03/22 12:32:26;;;;;;;6.30;3.87;;;;;;;;;;5099948;28;20405;-74
2021/03/22 12:34:53;;;;;;;6.60;4.30;;;;;;;;;;5093575;28;20441;-73
2021/03/22 12:37:22;;;;;;;5.85;4.60;;;;;;;;;;5090892;28;20417;-75
2021/03/22 12:39:48;;;;;;;5.50;4.20;;;;;;;;;;5101757;28;20201;-74
2021/03/22 12:42:14;;;;;;;9.48;4.47;;;;;;;;;;5099761;28;20182;-74
2021/03/22 12:44:41;;;;;;;6.03;4.38;;;;;;;;;;5088164;28;20211;-73
2021/03/22 12:47:07;;;;;;;7.90;4.80;;;;;;;;;;5091934;28;20568;-74
2021/03/22 12:49:33;;;;;;;5.57;3.88;;;;;;;;;;5091373;28;20206;-73
2021/03/22 12:51:59;;;;;;;5.30;3.90;;;;;;;;;;5091418;28;20222;-74
2021/03/22 12:54:25;;;;;;;5.10;3.80;;;;;;;;;;5090894;28;20462;-73
2021/03/22 12:56:51;;;;;;;6.53;4.23;;;;;;;;;;5105487;28;20457;-75
2021/03/22 12:59:25;;;;;;;5.32;3.35;;;;;;;;;;5101102;28;20425;-75
2021/03/22 13:01:51;;;;;;;5.38;3.92;;;;;;;;;;5094915;28;20619;-73
2021/03/22 13:04:17;;;;;;;6.68;3.90;;;;;;;;;;5090407;28;20188;-74
2021/03/22 13:06:43;;;;;;;5.67;4.50;;;;;;;;;;5106349;28;20186;-73
2021/03/22 13:09:09;;;;;;;7.47;4.85;;;;;;;;;;5111737;28;20424;-74
2021/03/22 13:11:35;;;;;;;11.03;4.50;;;;;;;;;;5106068;28;20175;-74
2021/03/22 13:14:04;;;;;;;6.82;4.30;;;;;;;;;;5102922;28;20439;-74
2021/03/22 13:16:30;;;;;;;5.53;3.90;;;;;;;;;;5090756;28;20214;-71
2021/03/22 13:18:56;;;;;;;7.72;3.72;;;;;;;;;;5091154;28;20282;-75
2021/03/22 13:21:22;;;;;;;5.95;4.18;;;;;;;;;;5091057;28;20179;-72
2021/03/22 13:23:49;;;;;;;5.50;3.57;;;;;;;;;;5098776;28;20559;-74
2021/03/22 13:26:15;;;;;;;4.63;3.50;;;;;;;;;;5111186;28;20533;-74
2021/03/22 13:28:45;;;;;;;13.60;10.25;;;;;;;;;;5096654;28;20227;-73
2021/03/22 13:31:14;;;;;;;4.93;2.85;;;;;;;;;;5091104;28;20180;-74
2021/03/22 13:33:40;;;;;;;5.68;2.80;;;;;;;;;;5100144;28;20179;-72
2021/03/22 13:36:08;;;;;;;5.15;3.10;;;;;;;;;;5108117;28;20187;-73
2021/03/22 13:38:35;;;;;;;5.95;2.70;;;;;;;;;;5094888;28;20184;-73
2021/03/22 13:41:02;;;;;;;3.70;2.95;;;;;;;;;;5104814;28;20198;-73
2021/03/22 13:43:29;;;;;;;8.77;3.20;;;;;;;;;;5090020;28;20637;-74
2021/03/22 13:45:56;;;;;;;6.53;3.08;;;;;;;;;;5094498;28;20209;-73
2021/03/22 13:48:23;;;;;;;4.35;3.60;;;;;;;;;;5106433;28;20215;-73
2021/03/22 13:50:50;;;;;;;3.65;3.00;;;;;;;;;;5088087;28;20209;-71
2021/03/22 13:53:17;;;;;;;15.27;3.90;;;;;;;;;;5095896;28;20190;-75
2021/03/22 13:55:43;;;;;;;4.75;3.40;;;;;;;;;;5090501;28;20217;-74
2021/03/22 13:58:13;;;;;;;4.78;3.05;;;;;;;;;;5088851;28;20671;-73
2021/03/22 14:00:39;;;;;;;7.03;3.58;;;;;;;;;;5095248;28;20707;-76
2021/03/22 14:03:05;;;;;;;4.53;3.13;;;;;;;;;;5102605;28;20190;-73
2021/03/22 14:05:31;;;;;;;6.13;3.03;;;;;;;;;;5089764;28;20238;-75
2021/03/22 14:07:57;;;;;;;9.27;3.70;;;;;;;;;;5090007;28;20182;-75
2021/03/22 14:10:23;;;;;;;9.25;3.80;;;;;;;;;;5089587;28;20182;-72
2021/03/22 14:12:52;;;;;;;8.02;3.47;;;;;;;;;;5089560;28;20179;-74
2021/03/22 14:15:25;;;;;;;5.30;2.75;;;;;;;;;;5089684;28;20720;-73
2021/03/22 14:17:51;;;;;;;7.10;2.60;;;;;;;;;;5090045;28;20221;-72
2021/03/22 14:20:18;;;;;;;6.43;2.60;;;;;;;;;;5089256;28;20186;-74
2021/03/22 14:22:45;;;;;;;5.18;2.90;;;;;;;;;;5089948;28;20190;-75
2021/03/22 14:25:11;;;;;;;3.42;2.63;;;;;;;;;;5089055;28;20571;-74
2021/03/22 14:27:37;;;;;;;5.05;2.10;;;;;;;;;;5102642;28;20170;-72
2021/03/22 14:30:04;;;;;;;4.82;3.60;;;;;;;;;;5089579;28;20924;-75
2021/03/22 14:32:30;;;;;;;5.35;2.55;;;;;;;;;;5103656;28;20179;-74
2021/03/22 14:34:56;;;;;;;4.28;2.10;;;;;;;;;;5109618;28;20230;-73
2021/03/22 14:37:22;;;;;;;5.82;2.40;;;;;;;;;;5101646;28;20229;-73
2021/03/22 14:39:48;;;;;;;6.40;2.35;;;;;;;;;;5088577;28;20179;-74
2021/03/22 14:42:14;;;;;;;7.13;2.70;;;;;;;;;;5090508;28;20181;-73
2021/03/22 14:44:40;;;;;;;10.10;2.35;;;;;;;;;;5092541;28;20988;-75
2021/03/22 14:47:06;;;;;;;5.43;2.20;;;;;;;;;;5090822;28;20517;-73
2021/03/22 14:49:32;;;;;;;4.03;2.15;;;;;;;;;;5109715;28;20181;-75
2021/03/22 14:51:58;;;;;;;6.00;2.60;;;;;;;;;;5100490;28;20700;-75